SCCY/GXQ METAR and TAF weather

Enter ICAO airport designator
Station Type Date Time Source
SCCY METAR 2019/08/22 05:00 UTC NOAA

SCCY 220500Z AUTO VRB01KT 9999 BKN037 OVC043 08/03 Q1021


Station Type Date Time Source
SCCY Decoded METAR 2019/08/22 05:00 UTC NOAA

Station name not available
Aug 22, 2019 - 01:00 AM EDT / 2019.08.22 0500 UTC
Wind: Variable at 1 MPH (1 KT):0
Visibility: greater than 7 mile(s):0
Sky conditions: overcast
Temperature: 46 F (8 C)
Dew Point: 37 F (3 C)
Relative Humidity: 70%
Pressure (altimeter): 30.15 in. Hg (1021 hPa)
ob: SCCY 220500Z AUTO VRB01KT 9999 BKN037 OVC043 08/03 Q1021
cycle: 5

Station Type Date Time Source
SCCY TAF 2019/08/21 12:33 UTC NOAA

TAF SCCY 211047Z 2112/2124 VRB03KT 7000 -SHRA BKN020 OVC030 TN02/2112Z TX08/2118Z
BECMG 2115/2117 30007KT 9999 NSW BKN030

Example: see airport list